Airfield :
LOGIN :

Register | Disclaimer

   EN    FR    IT 

 










Legend :    VFR   Marginal VFR   IFR   Intensive IFR   Very Intensive IFR
Visi :
Ceiling :
>= 8 km
>= 3000ft
5 to 8 km
1000 to 3000 ft
1500m to 5 km
500 to 1000 ft
800 to 1500m
200 to 500 ft
< 800m
< 200 ft
Symbols :   Thunderstorms  Fog  Heavy snow  Heavy precipitations  Wind > 20 kt
SIGMETs :     Misc.  Thunderstorms  Icing  Turbulence  Mountain Waves  Volcanic Ashes







- Airport Elevation : 1504 ft
- IATA code : PNA


LEPP - Noain Pamplona

CURRENT METAR :
  • 190200Z AUTO VRB01KT 9999 NCD 15/14 Q1019

EXPIRED METARs :
  • 190130Z AUTO VRB02KT 9999 NCD 15/14 Q1019
  • 190100Z AUTO VRB02KT 9999 NCD 16/14 Q1019
  • 190030Z AUTO 27002KT 9999 NCD 16/15 Q1019
  • 190000Z AUTO 30002KT 9999 NCD 16/15 Q1019
  • 182330Z AUTO 30003KT 9999 FEW020 17/15 Q1019

TAF TAF LEPP
Valid from the 18 at 21:00 until the 19 at 21:00 UTC


182000Z 1821/1921 VRB05KT 9999 SCT040 TX27/1915Z TN14/1903Z
PROB40
TEMPO 1912/1918 RA SHRA SCT025TCU
PROB30
TEMPO 1912/1918 SHRA TS SCT030CB
PROB30
TEMPO 1915/1918 30010G25KT
No reported NOTAMs for that airfield.



MET'MAP, your aeronautical weather chart ! - Copyright ORBIFLY December 2007 - Disclaimer

ORBIFLY MET'MAP TEAM :

Programming & Development : Alexandra Zaïnal
Concept & Development : Baudouin d'Aumeries
Co-Development & Prog : Marc-Olivier Méhu
Technical & hardware support : Manuel Goepfert

Contact : metmap@orbifly.com




SOURCES & CREDITS :

   NOAA